Time;durP1;ratioP1;P1;durP2;ratioP2;P2;SDS_P1;SDS_P2;PMS_P1;PMS_P2;Temp;Humidity;BMP_temperature;BMP_pressure;BME280_temperature;BME280_humidity;BME280_pressure;Samples;Min_cycle;Max_cycle;Signal;HPM_P1;HPM_P2
2021/07/14 00:00:18;;;;;;;14.90;9.48;;;17.20;93.90;;;;;;5035586;28;20037;-76
2021/07/14 00:02:45;;;;;;;16.20;10.38;;;17.10;93.90;;;;;;5035143;28;20025;-76
2021/07/14 00:05:13;;;;;;;13.93;9.82;;;17.20;93.80;;;;;;5035179;28;20049;-76
2021/07/14 00:07:39;;;;;;;16.75;10.00;;;17.30;93.80;;;;;;5035307;28;20040;-76
2021/07/14 00:10:09;;;;;;;13.27;9.55;;;17.40;93.60;;;;;;5035454;28;20030;-76
2021/07/14 00:12:44;;;;;;;;;;;17.40;93.60;;;;;;5035328;28;20029;-76
2021/07/14 00:23:17;;;;;;;13.63;8.93;;;17.50;93.50;;;;;;5054770;28;20047;-76
2021/07/14 00:25:42;;;;;;;16.23;9.70;;;17.60;93.50;;;;;;5054618;28;20048;-76
2021/07/14 00:28:08;;;;;;;13.27;10.35;;;17.50;93.80;;;;;;5054721;28;20029;-76
2021/07/14 00:30:37;;;;;;;16.33;10.05;;;17.50;93.60;;;;;;5054976;28;20588;-75
2021/07/14 00:33:04;;;;;;;12.90;9.50;;;17.50;93.60;;;;;;5054513;28;20025;-76
2021/07/14 00:35:29;;;;;;;15.23;10.70;;;17.50;93.60;;;;;;5054598;28;20461;-76
2021/07/14 00:37:55;;;;;;;14.35;9.10;;;17.50;93.70;;;;;;5054600;28;20036;-77
2021/07/14 00:40:22;;;;;;;15.73;10.40;;;17.50;93.50;;;;;;5054589;28;20040;-76
2021/07/14 00:42:47;;;;;;;14.00;9.43;;;17.50;93.60;;;;;;5054304;28;20075;-77
2021/07/14 00:45:13;;;;;;;14.55;10.05;;;17.50;93.70;;;;;;5054551;28;20025;-76
2021/07/14 00:47:47;;;;;;;16.38;9.63;;;17.60;93.60;;;;;;5054495;28;20029;-75
2021/07/14 00:50:13;;;;;;;15.38;10.10;;;17.60;93.70;;;;;;5036499;28;20029;-76
2021/07/14 00:52:39;;;;;;;15.55;9.95;;;17.60;93.60;;;;;;5054393;28;20435;-76
2021/07/14 00:55:05;;;;;;;14.23;9.00;;;17.60;93.70;;;;;;5036393;28;20021;-77
2021/07/14 00:57:31;;;;;;;16.48;10.43;;;17.70;93.70;;;;;;5054148;28;20491;-77
2021/07/14 00:59:58;;;;;;;14.02;10.07;;;17.70;93.60;;;;;;5053789;28;20449;-76
2021/07/14 01:02:25;;;;;;;14.88;9.60;;;17.70;93.80;;;;;;5054041;28;20024;-76
2021/07/14 01:05:29;;;;;;;16.50;10.45;;;17.80;93.70;;;;;;5054448;28;20108;-77
2021/07/14 01:08:20;;;;;;;15.02;11.23;;;;;;;;;;5054113;28;20024;-76
2021/07/14 01:11:02;;;;;;;15.65;10.55;;;;;;;;;;5029681;28;20047;-76
2021/07/14 01:13:41;;;;;;;16.15;9.65;;;;;;;;;;5053830;28;20061;-76
2021/07/14 01:16:20;;;;;;;14.85;9.85;;;17.70;93.80;;;;;;5053637;28;20017;-76
2021/07/14 01:18:55;;;;;;;18.30;10.80;;;17.80;93.90;;;;;;5053902;28;20025;-77
2021/07/14 01:21:33;;;;;;;18.00;11.32;;;17.70;93.60;;;;;;5036624;28;20482;-75
2021/07/14 01:24:26;;;;;;;11.85;9.00;;;17.70;93.70;;;;;;5033852;28;20022;-76
2021/07/14 01:27:11;;;;;;;16.08;10.88;;;17.70;93.80;;;;;;5033735;28;20068;-75
2021/07/14 01:29:45;;;;;;;17.30;10.40;;;17.70;93.80;;;;;;5034008;28;20400;-77
2021/07/14 01:32:13;;;;;;;18.27;10.10;;;17.70;93.80;;;;;;5033552;28;20049;-76
2021/07/14 01:34:44;;;;;;;17.65;11.00;;;17.70;93.80;;;;;;5033719;28;20037;-76
2021/07/14 01:37:12;;;;;;;14.73;10.02;;;17.80;93.70;;;;;;5033418;28;20021;-77
2021/07/14 01:39:41;;;;;;;17.23;11.18;;;17.70;93.70;;;;;;5033511;28;20032;-76
2021/07/14 01:42:09;;;;;;;13.80;9.02;;;17.60;93.80;;;;;;5033631;28;20017;-75
2021/07/14 01:44:37;;;;;;;17.15;10.80;;;17.60;94.10;;;;;;5033541;28;20025;-77
2021/07/14 01:47:03;;;;;;;15.73;10.30;;;17.60;93.90;;;;;;5033362;28;20500;-76
2021/07/14 01:49:32;;;;;;;13.38;9.95;;;17.50;93.90;;;;;;5033740;28;20033;-76
2021/07/14 01:52:01;;;;;;;16.33;10.40;;;17.60;94.00;;;;;;5032992;28;20427;-77
2021/07/14 01:54:28;;;;;;;12.00;9.27;;;17.50;93.80;;;;;;5033279;28;20034;-79
2021/07/14 01:56:55;;;;;;;15.45;10.45;;;17.60;93.90;;;;;;5033091;28;20037;-77
2021/07/14 01:59:22;;;;;;;19.33;11.07;;;17.60;93.80;;;;;;5033289;28;20018;-77
2021/07/14 02:01:50;;;;;;;17.23;10.63;;;17.50;93.90;;;;;;5033401;28;20025;-76
2021/07/14 02:04:33;;;;;;;15.68;9.85;;;17.40;93.90;;;;;;5033224;28;20023;-78
2021/07/14 02:07:03;;;;;;;13.98;10.00;;;17.40;94.00;;;;;;5033056;28;20033;-79
2021/07/14 02:09:31;;;;;;;15.18;9.77;;;17.30;94.10;;;;;;5033244;28;20025;-77
2021/07/14 02:11:58;;;;;;;13.98;9.65;;;17.40;94.00;;;;;;5032904;28;20482;-76
2021/07/14 02:14:29;;;;;;;14.40;9.60;;;17.40;94.00;;;;;;5032975;28;20485;-76
2021/07/14 02:16:55;;;;;;;16.75;10.05;;;17.40;93.90;;;;;;5032802;28;20113;-76
2021/07/14 02:19:22;;;;;;;15.15;10.90;;;17.40;93.90;;;;;;5033538;28;20021;-76
2021/07/14 02:21:48;;;;;;;16.38;10.60;;;17.20;94.10;;;;;;5052735;28;20421;-76
2021/07/14 02:24:16;;;;;;;16.25;11.07;;;17.10;94.30;;;;;;5052920;28;20396;-76
2021/07/14 02:26:42;;;;;;;15.80;11.23;;;17.10;94.50;;;;;;5052190;28;20045;-77
2021/07/14 02:29:09;;;;;;;18.75;11.88;;;17.10;94.40;;;;;;5052650;28;20047;-75
2021/07/14 02:31:35;;;;;;;16.45;11.38;;;17.10;94.40;;;;;;5052548;28;20035;-79
2021/07/14 02:34:01;;;;;;;18.42;11.25;;;17.10;94.30;;;;;;5052633;28;20021;-76
2021/07/14 02:36:32;;;;;;;13.98;10.40;;;17.10;94.50;;;;;;5052558;28;20104;-76
2021/07/14 02:39:03;;;;;;;14.75;10.35;;;17.10;94.40;;;;;;5052264;28;20025;-77
2021/07/14 02:41:46;;;;;;;17.77;11.15;;;17.10;94.50;;;;;;5052601;28;20040;-76
2021/07/14 02:44:14;;;;;;;17.35;10.77;;;17.10;94.40;;;;;;5052676;28;20485;-76
2021/07/14 02:46:43;;;;;;;17.52;12.05;;;17.00;94.50;;;;;;5052372;28;20044;-75
2021/07/14 02:49:11;;;;;;;16.77;11.18;;;17.00;94.70;;;;;;5052309;28;20025;-77
2021/07/14 02:51:39;;;;;;;16.95;11.85;;;17.00;95.10;;;;;;5052094;28;20033;-77
2021/07/14 02:54:17;;;;;;;19.45;11.52;;;17.00;94.70;;;;;;5052406;28;20025;-75
2021/07/14 02:56:43;;;;;;;16.38;11.13;;;17.00;94.70;;;;;;5052351;28;20146;-76
2021/07/14 02:59:10;;;;;;;16.85;11.18;;;17.00;94.90;;;;;;5052400;28;20024;-76
2021/07/14 03:01:42;;;;;;;15.73;10.77;;;17.00;94.70;;;;;;5052157;28;20036;-77
2021/07/14 03:04:10;;;;;;;20.95;11.35;;;17.00;94.70;;;;;;5052155;28;20079;-77
2021/07/14 03:06:38;;;;;;;18.90;11.80;;;17.10;94.60;;;;;;5052125;28;20041;-76
2021/07/14 03:09:06;;;;;;;17.38;10.82;;;17.00;94.60;;;;;;5052431;28;20022;-76
2021/07/14 03:11:40;;;;;;;16.80;11.63;;;17.10;94.60;;;;;;5034263;28;20053;-77
2021/07/14 03:14:08;;;;;;;16.60;12.52;;;17.00;94.70;;;;;;5052186;28;20029;-76
2021/07/14 03:16:36;;;;;;;17.17;11.45;;;17.10;94.70;;;;;;5051773;28;20021;-78
2021/07/14 03:19:03;;;;;;;17.45;11.50;;;17.00;94.80;;;;;;5051913;28;20021;-76
2021/07/14 03:21:32;;;;;;;19.60;13.00;;;17.10;94.80;;;;;;5033408;28;20474;-77
2021/07/14 03:24:04;;;;;;;20.60;12.25;;;17.00;94.70;;;;;;5034011;28;20144;-77
2021/07/14 03:26:31;;;;;;;18.42;11.68;;;17.10;94.80;;;;;;5035671;28;20510;-77
2021/07/14 03:28:58;;;;;;;15.93;11.25;;;17.10;94.80;;;;;;5035914;28;20036;-76
2021/07/14 03:31:24;;;;;;;14.75;11.00;;;17.00;94.90;;;;;;5035876;28;20030;-76
2021/07/14 03:33:50;;;;;;;18.75;11.85;;;17.10;94.80;;;;;;5035922;28;20032;-76
2021/07/14 03:36:17;;;;;;;16.63;12.32;;;17.10;94.90;;;;;;5036091;28;20034;-77
2021/07/14 03:38:43;;;;;;;16.20;11.50;;;17.00;94.70;;;;;;5035626;28;20088;-77
2021/07/14 03:41:09;;;;;;;17.98;10.98;;;17.00;94.90;;;;;;5035804;28;20512;-77
2021/07/14 03:43:35;;;;;;;17.80;11.32;;;17.10;94.80;;;;;;5035740;28;20025;-76
2021/07/14 03:46:02;;;;;;;14.90;11.18;;;17.10;94.80;;;;;;5035857;28;20059;-77
2021/07/14 03:48:30;;;;;;;15.70;11.75;;;17.10;94.60;;;;;;5035624;28;20101;-76
2021/07/14 03:50:57;;;;;;;18.38;11.52;;;17.10;94.60;;;;;;5035757;28;20036;-77
2021/07/14 03:53:23;;;;;;;19.13;11.43;;;17.10;94.70;;;;;;5035476;28;20021;-76
2021/07/14 03:55:50;;;;;;;15.70;10.40;;;17.10;94.60;;;;;;5035717;28;20056;-77
2021/07/14 03:58:17;;;;;;;15.38;11.35;;;17.10;94.70;;;;;;5035235;28;20518;-78
2021/07/14 04:00:47;;;;;;;17.17;11.50;;;17.10;94.60;;;;;;5035539;28;20503;-77
2021/07/14 04:03:12;;;;;;;18.83;11.70;;;17.10;94.70;;;;;;5035194;28;20029;-76
2021/07/14 04:05:42;;;;;;;17.73;10.82;;;17.10;94.70;;;;;;5035534;28;20033;-77
2021/07/14 04:08:12;;;;;;;17.08;12.02;;;17.10;94.70;;;;;;5035294;28;20405;-75
2021/07/14 04:10:39;;;;;;;16.63;11.10;;;17.10;94.50;;;;;;5035716;28;20449;-77
2021/07/14 04:13:05;;;;;;;17.88;11.13;;;17.10;94.60;;;;;;5035051;28;20105;-76
2021/07/14 04:15:31;;;;;;;16.27;12.13;;;17.00;94.70;;;;;;5035310;28;20103;-77
2021/07/14 04:17:57;;;;;;;18.38;11.48;;;17.00;94.60;;;;;;5035035;28;20022;-77
2021/07/14 04:20:22;;;;;;;15.65;11.27;;;17.10;94.70;;;;;;5043998;28;20095;-78
2021/07/14 04:22:48;;;;;;;17.38;11.68;;;17.10;94.60;;;;;;5054854;28;20035;-77
2021/07/14 04:25:15;;;;;;;15.25;11.27;;;17.10;94.40;;;;;;5055116;28;20045;-79
2021/07/14 04:27:41;;;;;;;17.75;11.32;;;17.10;94.50;;;;;;5054770;28;20027;-77
2021/07/14 04:30:07;;;;;;;18.35;12.65;;;17.10;94.30;;;;;;5054852;28;20107;-78
2021/07/14 04:32:32;;;;;;;20.23;12.45;;;17.10;94.50;;;;;;5054618;28;20435;-76
2021/07/14 04:34:58;;;;;;;15.60;11.98;;;17.10;94.40;;;;;;5053762;28;20031;-76
2021/07/14 04:37:24;;;;;;;17.08;12.65;;;17.10;94.50;;;;;;5054700;28;20025;-77
2021/07/14 04:39:49;;;;;;;17.40;12.68;;;17.10;94.40;;;;;;5054064;28;20056;-76
2021/07/14 04:42:15;;;;;;;21.35;13.02;;;17.00;94.40;;;;;;5054525;28;20052;-77
2021/07/14 04:44:51;;;;;;;17.20;12.02;;;17.10;94.40;;;;;;5054629;28;20025;-76
2021/07/14 04:47:17;;;;;;;19.95;12.00;;;17.10;94.40;;;;;;5036472;28;20400;-76
2021/07/14 04:49:43;;;;;;;17.83;11.90;;;17.20;94.10;;;;;;5054531;28;20024;-77
2021/07/14 04:52:09;;;;;;;19.58;12.70;;;17.20;94.10;;;;;;5054003;28;20021;-77
2021/07/14 04:54:36;;;;;;;17.83;12.23;;;17.20;94.00;;;;;;5054284;28;20033;-77
2021/07/14 04:57:02;;;;;;;16.70;12.27;;;17.20;94.00;;;;;;5054432;28;20103;-75
2021/07/14 04:59:27;;;;;;;16.50;11.07;;;17.10;94.00;;;;;;5054108;28;20028;-78
2021/07/14 05:01:53;;;;;;;19.55;12.43;;;17.10;94.00;;;;;;5054242;28;20050;-77
2021/07/14 05:04:19;;;;;;;18.17;12.10;;;17.10;94.00;;;;;;5053906;28;20033;-76
2021/07/14 05:06:45;;;;;;;15.18;11.27;;;17.00;94.10;;;;;;5054338;28;20107;-76
2021/07/14 05:09:11;;;;;;;15.60;11.95;;;17.10;94.10;;;;;;5054084;28;20025;-76
2021/07/14 05:11:37;;;;;;;17.73;12.00;;;17.10;94.00;;;;;;5054096;28;20029;-77
2021/07/14 05:14:03;;;;;;;14.65;10.95;;;17.10;94.00;;;;;;5053873;28;20232;-77
2021/07/14 05:16:29;;;;;;;18.10;12.00;;;17.10;94.00;;;;;;5054204;28;20022;-77
2021/07/14 05:18:55;;;;;;;18.27;12.25;;;17.10;93.90;;;;;;5053681;28;20025;-77
2021/07/14 05:21:20;;;;;;;17.38;11.20;;;17.10;93.80;;;;;;5036595;28;20026;-78
2021/07/14 05:23:46;;;;;;;15.00;11.57;;;17.00;93.90;;;;;;5033663;28;20529;-77
2021/07/14 05:26:12;;;;;;;16.33;10.75;;;17.00;93.90;;;;;;5033724;28;20046;-75
2021/07/14 05:28:38;;;;;;;14.98;10.70;;;17.00;93.90;;;;;;5033824;28;20033;-76
2021/07/14 05:31:05;;;;;;;15.18;10.65;;;17.10;93.80;;;;;;5033758;28;20123;-77
2021/07/14 05:33:30;;;;;;;17.00;10.60;;;17.00;93.90;;;;;;5033391;28;20116;-76
2021/07/14 05:35:57;;;;;;;13.30;10.02;;;17.00;93.80;;;;;;5033902;28;20064;-77
2021/07/14 05:38:23;;;;;;;15.68;10.35;;;17.00;93.90;;;;;;5033500;28;20032;-78
2021/07/14 05:40:50;;;;;;;16.35;11.02;;;17.00;93.90;;;;;;5033551;28;20104;-76
2021/07/14 05:43:17;;;;;;;15.10;11.02;;;17.00;93.90;;;;;;5033230;28;20067;-78
2021/07/14 05:45:42;;;;;;;17.45;11.13;;;17.10;93.80;;;;;;5033839;28;20030;-76
2021/07/14 05:48:08;;;;;;;14.57;10.95;;;17.10;93.80;;;;;;5033316;28;20040;-76
2021/07/14 05:50:35;;;;;;;16.48;10.45;;;17.00;93.70;;;;;;5033277;28;20076;-75
2021/07/14 05:53:00;;;;;;;14.65;10.27;;;17.10;93.70;;;;;;5032975;28;20044;-76
2021/07/14 05:55:26;;;;;;;16.40;10.40;;;17.10;93.60;;;;;;5033329;28;20026;-77
2021/07/14 05:57:53;;;;;;;18.45;11.20;;;17.00;93.80;;;;;;5033292;28;20368;-75
2021/07/14 06:00:19;;;;;;;15.85;10.05;;;17.00;93.80;;;;;;5033024;28;20021;-76
2021/07/14 06:02:45;;;;;;;13.38;9.98;;;17.10;93.60;;;;;;5032866;28;20108;-77
2021/07/14 06:05:12;;;;;;;15.45;11.02;;;17.10;93.70;;;;;;5033287;28;20056;-76
2021/07/14 06:07:38;;;;;;;14.95;10.85;;;17.10;93.60;;;;;;5033188;28;20515;-76
2021/07/14 06:10:05;;;;;;;15.75;10.57;;;17.00;93.40;;;;;;5032985;28;20017;-77
2021/07/14 06:12:31;;;;;;;15.43;10.18;;;17.10;93.50;;;;;;5032614;28;20032;-75
2021/07/14 06:14:56;;;;;;;16.35;11.25;;;17.10;93.50;;;;;;5032982;28;20021;-77
2021/07/14 06:17:22;;;;;;;16.35;10.55;;;17.10;93.50;;;;;;5033006;28;20032;-77
2021/07/14 06:19:48;;;;;;;16.60;10.77;;;17.10;93.40;;;;;;5036944;28;20017;-76
2021/07/14 06:22:13;;;;;;;15.25;10.30;;;17.10;93.50;;;;;;5052388;28;20090;-77
2021/07/14 06:24:40;;;;;;;16.25;10.30;;;17.10;93.20;;;;;;5052766;28;20113;-79
2021/07/14 06:27:06;;;;;;;15.00;9.55;;;17.10;93.40;;;;;;5052829;28;20052;-76
2021/07/14 06:29:31;;;;;;;12.70;9.38;;;17.10;93.10;;;;;;5052588;28;20493;-76
2021/07/14 06:31:57;;;;;;;14.98;9.73;;;17.10;93.10;;;;;;5052504;28;20032;-77
2021/07/14 06:34:24;;;;;;;15.77;9.55;;;17.10;93.00;;;;;;5052461;28;20021;-76
2021/07/14 06:36:50;;;;;;;21.90;10.00;;;17.20;93.10;;;;;;5052782;28;20028;-76
2021/07/14 06:39:16;;;;;;;14.57;10.75;;;17.20;93.10;;;;;;5052202;28;20021;-76
2021/07/14 06:41:43;;;;;;;13.57;9.25;;;17.20;93.20;;;;;;5052464;28;20032;-77
2021/07/14 06:44:08;;;;;;;13.30;9.48;;;17.20;92.90;;;;;;5052255;28;20028;-77
2021/07/14 06:46:34;;;;;;;12.63;8.88;;;17.20;92.90;;;;;;5052669;28;20385;-76
2021/07/14 06:49:00;;;;;;;13.32;8.57;;;17.10;93.10;;;;;;5052470;28;20021;-77
2021/07/14 06:51:26;;;;;;;12.57;8.57;;;17.10;92.90;;;;;;5052118;28;20029;-78
2021/07/14 06:53:52;;;;;;;12.50;8.35;;;17.20;92.90;;;;;;5051978;28;20032;-78
2021/07/14 06:56:18;;;;;;;13.77;8.15;;;17.20;92.80;;;;;;5034599;28;20489;-77
2021/07/14 06:58:44;;;;;;;15.20;8.70;;;17.30;92.80;;;;;;5051621;28;20021;-77
2021/07/14 07:01:10;;;;;;;14.10;8.60;;;17.30;92.60;;;;;;5052174;28;20559;-77
2021/07/14 07:03:37;;;;;;;12.48;8.55;;;17.40;92.60;;;;;;5051713;28;20115;-77
2021/07/14 07:06:04;;;;;;;12.60;9.00;;;17.40;92.60;;;;;;5052354;28;20040;-76
2021/07/14 07:08:33;;;;;;;12.13;8.70;;;17.40;92.50;;;;;;5052291;28;20505;-77
2021/07/14 07:10:59;;;;;;;12.73;8.23;;;17.50;92.10;;;;;;5052206;28;20074;-75
2021/07/14 07:13:26;;;;;;;13.55;7.97;;;17.50;92.30;;;;;;5051721;28;20090;-77
2021/07/14 07:15:53;;;;;;;12.15;8.43;;;17.60;92.20;;;;;;5051992;28;20058;-77
2021/07/14 07:18:21;;;;;;;11.75;8.32;;;17.60;92.20;;;;;;5052170;28;20087;-76
2021/07/14 07:20:48;;;;;;;10.90;8.32;;;17.60;92.20;;;;;;5039410;28;20491;-76
2021/07/14 07:23:14;;;;;;;10.52;7.72;;;17.70;92.00;;;;;;5031807;28;20490;-78
2021/07/14 07:25:41;;;;;;;11.20;8.35;;;17.80;91.70;;;;;;5031940;28;20053;-76
2021/07/14 07:28:13;;;;;;;12.05;8.18;;;17.80;91.40;;;;;;5031919;28;20025;-75
2021/07/14 07:30:39;;;;;;;12.20;8.00;;;17.70;91.60;;;;;;5032083;28;20105;-76
2021/07/14 07:33:05;;;;;;;14.20;7.88;;;17.80;91.60;;;;;;5013960;28;20117;-77
2021/07/14 07:35:30;;;;;;;11.82;7.60;;;17.80;91.60;;;;;;5032047;28;20029;-77
2021/07/14 07:37:56;;;;;;;11.65;7.72;;;17.90;91.50;;;;;;5032145;28;20100;-77
2021/07/14 07:40:22;;;;;;;11.18;7.53;;;17.90;91.10;;;;;;5031410;28;20482;-76
2021/07/14 07:42:48;;;;;;;11.13;7.88;;;17.80;91.30;;;;;;5013874;28;20429;-76
2021/07/14 07:45:14;;;;;;;13.65;7.90;;;17.90;91.50;;;;;;5031966;28;20025;-76
2021/07/14 07:47:40;;;;;;;12.23;8.00;;;18.10;91.30;;;;;;5032137;28;20026;-77
2021/07/14 07:50:07;;;;;;;10.90;7.85;;;18.20;91.20;;;;;;5031794;28;20033;-78
2021/07/14 07:52:33;;;;;;;11.63;7.75;;;18.20;90.70;;;;;;5031562;28;20113;-77
2021/07/14 07:55:00;;;;;;;10.88;7.72;;;18.20;91.00;;;;;;5031777;28;20559;-79
2021/07/14 07:57:27;;;;;;;11.40;8.02;;;18.20;90.90;;;;;;5032113;28;20021;-76
2021/07/14 07:59:52;;;;;;;14.07;8.32;;;18.40;90.80;;;;;;5031857;28;20551;-76
2021/07/14 08:02:18;;;;;;;10.40;7.68;;;18.40;90.60;;;;;;5031515;28;20017;-76
2021/07/14 08:04:43;;;;;;;9.52;7.53;;;18.60;90.70;;;;;;5031701;28;20078;-76
2021/07/14 08:07:09;;;;;;;10.75;8.50;;;18.70;90.40;;;;;;5031914;28;20061;-77
2021/07/14 08:09:37;;;;;;;11.35;8.55;;;18.70;90.20;;;;;;5032888;28;20064;-77
2021/07/14 08:12:04;;;;;;;11.63;7.82;;;18.70;90.20;;;;;;5035140;28;20108;-74
2021/07/14 08:14:29;;;;;;;11.10;8.38;;;18.70;90.00;;;;;;5034892;28;20025;-76
2021/07/14 08:16:55;;;;;;;12.15;7.65;;;18.80;89.40;;;;;;5035390;28;20526;-77
2021/07/14 08:19:21;;;;;;;11.20;7.55;;;18.80;89.60;;;;;;5035603;28;20021;-77
2021/07/14 08:21:46;;;;;;;11.00;8.50;;;18.80;90.00;;;;;;5054911;28;20049;-78
2021/07/14 08:24:12;;;;;;;10.88;8.45;;;18.90;89.80;;;;;;5055033;28;20024;-78
2021/07/14 08:26:38;;;;;;;11.30;7.68;;;19.00;90.00;;;;;;5054666;28;20091;-77
2021/07/14 08:29:04;;;;;;;10.15;8.07;;;19.00;89.50;;;;;;5055013;28;20033;-78
2021/07/14 08:31:30;;;;;;;10.80;7.95;;;19.00;89.30;;;;;;5054787;28;20028;-76
2021/07/14 08:33:56;;;;;;;11.85;7.70;;;19.00;89.50;;;;;;5054751;28;20032;-77
2021/07/14 08:36:25;;;;;;;11.48;7.63;;;18.90;90.00;;;;;;5054822;28;20024;-78
2021/07/14 08:38:51;;;;;;;12.25;7.78;;;18.80;89.90;;;;;;5054722;28;20051;-77
2021/07/14 08:41:20;;;;;;;13.10;8.05;;;18.80;90.00;;;;;;5054535;28;20029;-75
2021/07/14 08:43:47;;;;;;;11.40;8.33;;;18.70;90.10;;;;;;5054856;28;20025;-77
2021/07/14 08:46:13;;;;;;;14.63;8.63;;;18.70;90.40;;;;;;5054663;28;20504;-76
2021/07/14 08:48:39;;;;;;;12.15;8.07;;;18.70;90.30;;;;;;5054811;28;20109;-76
2021/07/14 08:51:06;;;;;;;10.65;7.28;;;18.60;90.40;;;;;;5054394;28;20463;-77
2021/07/14 08:53:33;;;;;;;13.05;9.00;;;18.70;90.50;;;;;;5053992;28;20500;-77
2021/07/14 08:56:00;;;;;;;12.00;7.90;;;18.80;90.60;;;;;;5054377;28;20048;-77
2021/07/14 08:58:27;;;;;;;12.95;9.57;;;18.90;90.40;;;;;;5054605;28;20021;-77
2021/07/14 09:00:55;;;;;;;9.63;7.57;;;18.90;90.00;;;;;;5054125;28;20535;-76
2021/07/14 09:03:21;;;;;;;11.23;8.25;;;19.00;90.10;;;;;;5053609;28;20028;-75
2021/07/14 09:05:47;;;;;;;12.68;8.65;;;19.00;90.30;;;;;;5054051;28;20044;-78
2021/07/14 09:08:13;;;;;;;11.68;8.85;;;19.00;90.10;;;;;;5054835;28;20025;-76
2021/07/14 09:10:40;;;;;;;11.05;7.75;;;19.00;90.00;;;;;;5054090;28;20032;-76
2021/07/14 09:13:07;;;;;;;10.93;7.95;;;19.10;90.10;;;;;;5053685;28;20024;-77
2021/07/14 09:15:40;;;;;;;13.85;9.07;;;19.10;90.20;;;;;;5053687;28;20028;-77
2021/07/14 09:18:06;;;;;;;11.90;7.97;;;19.10;89.80;;;;;;5054095;28;20099;-77
2021/07/14 09:20:33;;;;;;;14.35;8.52;;;19.10;89.50;;;;;;5042997;28;20029;-78
2021/07/14 09:23:18;;;;;;;11.38;8.13;;;19.20;89.20;;;;;;5033275;28;20045;-76
2021/07/14 09:25:54;;;;;;;11.20;7.38;;;19.20;89.50;;;;;;5033506;28;20494;-77
2021/07/14 09:28:23;;;;;;;9.95;7.82;;;19.20;89.80;;;;;;5033607;28;20457;-76
2021/07/14 09:30:59;;;;;;;8.98;7.40;;;19.30;89.00;;;;;;5033639;28;20076;-77
2021/07/14 09:33:25;;;;;;;12.25;8.10;;;19.40;88.70;;;;;;5032958;28;20029;-76
2021/07/14 09:35:53;;;;;;;11.65;7.53;;;19.60;88.60;;;;;;5033778;28;20053;-76
2021/07/14 09:38:23;;;;;;;11.27;7.93;;;19.80;87.50;;;;;;5033654;28;20385;-79
2021/07/14 09:40:55;;;;;;;10.75;7.85;;;19.90;87.20;;;;;;5033479;28;20505;-78
2021/07/14 09:43:35;;;;;;;13.20;7.60;;;20.30;86.00;;;;;;5033017;28;20117;-78
2021/07/14 09:46:08;;;;;;;9.65;7.07;;;20.40;84.90;;;;;;5033440;28;20026;-78
2021/07/14 09:48:37;;;;;;;10.43;6.80;;;20.40;84.50;;;;;;5033530;28;20028;-77
2021/07/14 09:51:09;;;;;;;10.23;6.95;;;20.30;84.60;;;;;;5033285;28;20026;-77
2021/07/14 09:53:37;;;;;;;11.05;6.80;;;20.40;84.00;;;;;;5033015;28;20025;-76
2021/07/14 09:56:15;;;;;;;10.15;7.20;;;20.50;84.40;;;;;;5033211;28;20022;-76
2021/07/14 09:58:41;;;;;;;8.60;6.53;;;20.40;84.30;;;;;;5033399;28;20021;-78
2021/07/14 10:01:11;;;;;;;8.88;5.75;;;20.40;85.10;;;;;;5033049;28;20033;-78
2021/07/14 10:03:38;;;;;;;10.40;6.22;;;20.40;85.00;;;;;;5032850;28;20113;-76
2021/07/14 10:06:12;;;;;;;8.63;5.70;;;20.50;85.00;;;;;;5032927;28;20545;-76
2021/07/14 10:08:43;;;;;;;8.18;5.90;;;20.40;83.80;;;;;;5033177;28;20135;-77
2021/07/14 10:11:13;;;;;;;9.82;6.07;;;20.30;85.40;;;;;;5032999;28;20037;-75
2021/07/14 10:13:40;;;;;;;11.75;6.55;;;20.20;85.30;;;;;;5033246;28;20029;-76
2021/07/14 10:16:06;;;;;;;7.50;5.63;;;20.10;84.40;;;;;;5032576;28;20401;-75
2021/07/14 10:18:32;;;;;;;9.27;5.85;;;20.20;84.30;;;;;;5032978;28;20100;-76
2021/07/14 10:21:02;;;;;;;7.15;5.55;;;20.30;84.70;;;;;;5046485;28;20123;-77
2021/07/14 10:23:30;;;;;;;7.75;5.65;;;20.40;84.50;;;;;;5052516;28;20459;-75
2021/07/14 10:25:58;;;;;;;8.95;5.80;;;20.30;83.70;;;;;;5052507;28;20527;-78
2021/07/14 10:28:24;;;;;;;9.55;5.95;;;20.40;83.80;;;;;;5052397;28;20115;-77
2021/07/14 10:30:52;;;;;;;8.63;6.15;;;20.40;83.60;;;;;;5034731;28;20426;-78
2021/07/14 10:33:19;;;;;;;9.55;6.03;;;20.50;83.80;;;;;;5051208;28;20033;-78
2021/07/14 10:35:48;;;;;;;9.10;5.70;;;20.50;84.00;;;;;;5052340;28;20066;-77
2021/07/14 10:38:22;;;;;;;10.10;5.90;;;20.40;84.00;;;;;;5052518;28;20107;-77
2021/07/14 10:40:50;;;;;;;10.23;6.00;;;20.40;84.30;;;;;;5052334;28;20028;-76
2021/07/14 10:43:19;;;;;;;7.75;5.78;;;20.50;85.10;;;;;;5052305;28;20369;-77
2021/07/14 10:45:48;;;;;;;6.95;5.47;;;20.50;84.10;;;;;;5052308;28;20053;-79
2021/07/14 10:48:16;;;;;;;7.32;5.30;;;20.50;83.80;;;;;;5052383;28;20035;-76
2021/07/14 10:50:43;;;;;;;8.68;5.78;;;20.50;84.30;;;;;;5052374;28;20107;-77
2021/07/14 10:53:16;;;;;;;9.40;5.57;;;20.60;83.70;;;;;;5051992;28;20078;-77
2021/07/14 10:55:43;;;;;;;7.85;5.63;;;20.60;81.90;;;;;;5052232;28;20049;-77
2021/07/14 10:58:11;;;;;;;8.23;5.28;;;20.60;83.20;;;;;;5052319;28;20366;-77
2021/07/14 11:00:41;;;;;;;8.70;5.60;;;20.60;83.30;;;;;;5052171;28;20017;-76
2021/07/14 11:03:26;;;;;;;8.82;5.85;;;20.70;82.90;;;;;;5052294;28;20029;-77
2021/07/14 11:05:52;;;;;;;7.40;5.40;;;20.60;83.00;;;;;;5051847;28;20044;-75
2021/07/14 11:08:44;;;;;;;7.03;5.68;;;20.50;83.50;;;;;;5052216;28;20472;-78
2021/07/14 11:11:11;;;;;;;9.18;5.45;;;20.40;83.70;;;;;;5052159;28;20029;-76
2021/07/14 11:13:39;;;;;;;7.68;5.60;;;20.40;83.70;;;;;;5052075;28;20340;-76
2021/07/14 11:16:24;;;;;;;9.27;5.70;;;20.30;84.00;;;;;;5051730;28;20028;-76
2021/07/14 11:19:19;;;;;;;8.00;5.50;;;20.10;83.30;;;;;;5052127;28;20040;-78
2021/07/14 11:21:58;;;;;;;9.23;6.03;;;20.10;84.10;;;;;;5030354;28;20034;-75
2021/07/14 11:24:45;;;;;;;9.43;5.95;;;20.10;84.00;;;;;;5031979;28;20029;-79
2021/07/14 11:27:23;;;;;;;11.27;6.15;;;20.00;84.80;;;;;;5031906;28;20048;-79
2021/07/14 11:29:50;;;;;;;9.95;6.25;;;20.20;84.40;;;;;;5031045;28;20057;-80
2021/07/14 11:32:34;;;;;;;8.13;5.78;;;20.40;83.40;;;;;;5031879;28;20025;-78
2021/07/14 11:35:22;;;;;;;8.80;5.72;;;20.30;83.90;;;;;;5031888;28;20123;-78
2021/07/14 11:37:50;;;;;;;8.52;6.18;;;20.30;83.80;;;;;;5032065;28;20025;-78
2021/07/14 11:40:21;;;;;;;8.63;5.70;;;20.30;84.20;;;;;;5031694;28;20390;-77
2021/07/14 11:42:53;;;;;;;10.45;6.13;;;20.30;83.40;;;;;;5031838;28;20025;-78
2021/07/14 11:45:20;;;;;;;8.45;5.93;;;;;;;;;;5034092;28;20026;-77
2021/07/14 11:47:59;;;;;;;9.65;5.90;;;;;;;;;;5035619;28;20030;-78
2021/07/14 11:50:46;;;;;;;8.02;5.30;;;;;;;;;;5035795;28;20407;-75
2021/07/14 11:56:12;;;;;;;7.93;5.05;;;;;;;;;;5035508;28;20091;-77
2021/07/14 11:58:46;;;;;;;6.53;5.22;;;20.40;84.00;;;;;;5035617;28;20029;-76
2021/07/14 12:01:18;;;;;;;8.85;5.70;;;22.20;74.60;;;;;;5035707;28;20497;-77
2021/07/14 12:03:59;;;;;;;8.38;5.63;;;21.60;78.20;;;;;;5035018;28;20079;-76
2021/07/14 12:06:44;;;;;;;6.38;4.93;;;21.40;79.70;;;;;;5035285;28;20033;-77
2021/07/14 12:09:12;;;;;;;5.93;4.35;;;21.70;79.40;;;;;;5034248;28;20033;-77
2021/07/14 12:12:04;;;;;;;6.50;4.22;;;22.20;76.00;;;;;;5035473;28;20022;-78
2021/07/14 12:14:35;;;;;;;7.88;4.53;;;22.80;74.60;;;;;;5035106;28;20021;-78
2021/07/14 12:17:23;;;;;;;6.05;4.05;;;23.00;74.00;;;;;;5035308;28;20096;-78
2021/07/14 12:19:50;;;;;;;6.40;4.40;;;23.00;74.30;;;;;;5039656;28;20024;-76
2021/07/14 12:22:21;;;;;;;7.82;4.15;;;23.00;73.40;;;;;;5055143;28;20095;-77
2021/07/14 12:24:54;;;;;;;7.13;4.57;;;23.00;73.20;;;;;;5054816;28;20124;-78
2021/07/14 12:27:28;;;;;;;9.38;5.18;;;22.90;72.00;;;;;;5054846;28;20075;-78
2021/07/14 12:30:08;;;;;;;7.88;4.50;;;23.00;74.10;;;;;;5055052;28;20511;-76
2021/07/14 12:32:37;;;;;;;6.10;4.35;;;23.30;72.70;;;;;;5054805;28;20028;-79
2021/07/14 12:35:17;;;;;;;6.10;4.85;;;23.60;70.50;;;;;;5054702;28;20543;-78
2021/07/14 12:37:49;;;;;;;6.13;4.60;;;23.60;69.40;;;;;;5054739;28;20047;-79
2021/07/14 12:40:29;;;;;;;5.90;4.15;;;23.50;68.60;;;;;;5054510;28;20028;-79
2021/07/14 12:43:03;;;;;;;6.47;4.70;;;23.50;69.00;;;;;;5054754;28;20029;-76
2021/07/14 12:45:34;;;;;;;6.15;4.75;;;23.00;73.50;;;;;;5054587;28;20029;-77
2021/07/14 12:48:02;;;;;;;7.55;5.03;;;22.40;75.40;;;;;;5054534;28;20033;-76
2021/07/14 12:50:28;;;;;;;6.30;4.68;;;22.00;77.20;;;;;;5054584;28;20025;-76
2021/07/14 12:52:57;;;;;;;6.75;4.20;;;22.00;78.30;;;;;;5054333;28;20435;-78
2021/07/14 12:55:24;;;;;;;6.40;4.97;;;22.30;78.50;;;;;;5054012;28;20525;-76
2021/07/14 12:57:51;;;;;;;6.55;4.70;;;22.50;77.30;;;;;;5053652;28;20017;-76